Latest Weather Observations for Lucas Heights

IDN60901

Issued at 11:16 pm EST Monday 31 August 2015 (issued every 10 minutes, with the page automatically refreshed every 10 minutes)

About weather observations | Map of Sydney area stations | Latest observations for Sydney area | Other Formats
Station Details ID: 066023 Name: LUCAS HEIGHTS AWS Lat: -34.05 Lon: 150.98 Height: 140.0 m
Data from the previous 72 hours. | See also: Recent months for locations in New South Wales
Date/Time
EST
Tmp

°C
App
Tmp
°C
Dew
Point
°C
Rel
Hum
%
Delta-T

°C
Wind Press
QNH
hPa
Press
MSL
hPa
Rain
since
9 am
mm
Dir
 
Spd
km/h
Gust
km/h
Spd
kts
Gust
kts
31/11:00pm 10.3 4.9 4.5 67 2.6 SW 22 24 12 13 1015.8 - 0.0
31/10:45pm 10.1 5.1 4.8 69 2.4 SW 20 22 11 12 1015.8 - 0.0
31/10:30pm 10.0 5.2 5.5 73 2.1 SW 20 24 11 13 1015.8 - 0.0
31/10:15pm 9.7 6.1 5.1 73 2.1 SW 13 20 7 11 1015.9 - 0.0
31/10:00pm 10.8 8.2 6.0 72 2.2 SW 9 15 5 8 1016.0 - 0.0
31/09:45pm 11.1 8.9 6.3 72 2.3 WSW 7 9 4 5 1016.0 - 0.0
31/09:30pm 11.2 8.7 6.5 73 2.2 WSW 9 11 5 6 1015.9 - 0.0
31/09:15pm 11.1 8.6 6.5 73 2.2 WSW 9 13 5 7 1015.8 - 0.0
31/09:00pm 10.9 8.0 6.6 75 2.0 SW 11 13 6 7 1015.8 - 0.0
31/08:45pm 10.6 7.7 6.5 76 1.9 SW 11 13 6 7 1015.7 - 0.0
31/08:30pm 10.4 7.5 6.5 77 1.8 SW 11 13 6 7 1015.7 - 0.0
31/08:15pm 9.9 7.7 6.0 77 1.8 SW 7 13 4 7 1015.6 - 0.0
31/08:00pm 9.7 7.4 5.6 75 1.9 S 7 11 4 6 1015.4 - 0.0
31/07:45pm 10.1 7.0 5.7 74 2.0 S 11 13 6 7 1015.2 - 0.0
31/07:30pm 10.6 7.6 5.9 73 2.2 S 11 13 6 7 1015.0 - 0.0
31/07:15pm 11.3 8.3 6.2 71 2.4 S 11 17 6 9 1014.9 - 0.0
31/07:00pm 11.8 8.5 6.5 70 2.5 S 13 17 7 9 1014.8 - 0.0
31/06:45pm 12.1 8.8 6.6 69 2.6 S 13 22 7 12 1014.7 - 0.0
31/06:30pm 12.4 8.8 6.6 68 2.8 S 15 19 8 10 1014.6 - 0.0
31/06:15pm 12.6 9.0 6.7 67 2.8 S 15 20 8 11 1014.4 - 0.0
31/06:00pm 12.8 9.2 6.6 66 3.0 S 15 24 8 13 1014.3 - 0.0
31/05:45pm 13.2 9.6 6.6 64 3.2 S 15 24 8 13 1014.2 - 0.0
31/05:30pm 13.5 9.1 6.6 63 3.3 SSE 19 24 10 13 1014.2 - 0.0
31/05:15pm 13.7 9.7 6.5 62 3.5 SSE 17 22 9 12 1014.1 - 0.0
31/05:00pm 14.0 9.9 6.2 59 3.8 SSE 17 28 9 15 1014.0 - 0.0
31/04:45pm 14.6 10.5 6.0 56 4.1 SSE 17 26 9 14 1013.8 - 0.0
31/04:30pm 14.8 11.8 6.1 56 4.2 SSE 11 22 6 12 1013.8 - 0.0
31/04:15pm 15.1 12.1 5.9 54 4.4 SSE 11 20 6 11 1013.7 - 0.0
31/04:00pm 15.6 12.2 6.0 53 4.7 SSE 13 24 7 13 1013.8 - 0.0
31/03:45pm 15.4 11.6 6.0 53 4.6 SSE 15 24 8 13 1013.8 - 0.0
31/03:30pm 15.8 11.2 5.6 50 4.9 SSE 19 24 10 13 1013.8 - 0.0
31/03:15pm 16.1 11.9 5.8 50 5.0 SSE 17 28 9 15 1013.9 - 0.0
31/03:00pm 15.9 11.7 5.6 50 5.0 SSE 17 24 9 13 1013.9 - 0.0
31/02:45pm 15.9 11.6 5.4 49 5.0 SE 17 24 9 13 1014.0 - 0.0
31/02:30pm 15.9 12.0 5.4 49 5.0 SE 15 22 8 12 1014.0 - 0.0
31/02:15pm 16.2 12.7 5.3 48 5.2 SE 13 24 7 13 1014.1 - 0.0
31/02:00pm 16.3 13.2 5.5 48 5.2 SE 11 17 6 9 1014.2 - 0.0
31/01:45pm 15.7 12.1 4.9 48 5.1 SE 13 19 7 10 1014.3 - 0.0
31/01:30pm 15.9 12.3 5.0 48 5.2 SE 13 19 7 10 1014.4 - 0.0
31/01:15pm 16.4 12.7 4.7 46 5.6 SE 13 19 7 10 1014.6 - 0.0
31/01:00pm 16.8 13.9 4.8 45 5.7 SSE 9 19 5 10 1014.7 - 0.0
31/12:45pm 17.2 13.8 4.1 41 6.2 S 11 20 6 11 1014.9 - 0.0
31/12:30pm 17.0 12.3 3.2 39 6.4 SW 17 26 9 14 1015.1 - 0.0
31/12:15pm 17.0 13.6 4.1 42 6.1 SW 11 26 6 14 1015.3 - 0.0
31/12:00pm 16.5 11.9 3.9 43 5.9 SSW 17 24 9 13 1015.6 - 0.0
31/11:45am 16.2 11.7 4.1 44 5.7 SSW 17 24 9 13 1015.9 - 0.0
31/11:30am 16.2 12.1 4.6 46 5.5 SSW 15 24 8 13 1016.0 - 0.0
31/11:15am 15.8 12.1 4.5 47 5.3 SW 13 19 7 10 1016.3 - 0.0
31/11:00am 15.9 12.6 4.6 47 5.3 SW 11 20 6 11 1016.4 - 0.0
31/10:45am 15.6 11.8 4.0 46 5.4 SSW 13 22 7 12 1016.5 - 0.0
31/10:30am 15.3 11.2 4.2 47 5.2 SSW 15 24 8 13 1016.7 - 0.0
31/10:15am 14.8 11.5 4.3 49 4.9 SSW 11 19 6 10 1016.8 - 0.0
31/10:00am 14.5 11.2 4.3 50 4.7 SSW 11 17 6 9 1016.9 - 0.0
31/09:45am 14.2 10.9 4.4 51 4.6 S 11 19 6 10 1017.1 - 0.0
31/09:30am 13.8 10.9 4.8 54 4.2 SW 9 19 5 10 1017.2 - 0.0
31/09:15am 12.9 9.6 4.4 56 3.9 SW 11 19 6 10 1017.3 - 0.0
31/09:00am 12.3 8.9 4.0 57 3.8 SW 11 19 6 10 1017.3 - 0.0
31/08:45am 12.2 8.8 4.2 58 3.6 SW 11 15 6 8 1017.3 - 0.0
31/08:30am 11.7 7.9 3.9 59 3.5 SW 13 20 7 11 1017.4 - 0.0
31/08:15am 11.2 7.8 3.9 61 3.3 SW 11 17 6 9 1017.4 - 0.0
31/08:00am 10.7 6.9 3.9 63 3.0 SW 13 17 7 9 1017.4 - 0.0
31/07:45am 10.1 6.3 3.8 65 2.8 SW 13 17 7 9 1017.3 - 0.0
31/07:30am 9.0 4.8 3.8 70 2.3 SSW 15 19 8 10 1017.3 - 0.0
31/07:15am 8.3 4.0 3.3 71 2.2 SSW 15 20 8 11 1017.3 - 0.0
31/07:00am 8.1 3.0 3.1 71 2.1 SW 19 22 10 12 1017.1 - 0.0
31/06:45am 8.0 2.9 3.0 71 2.1 SW 19 22 10 12 1017.1 - 0.0
31/06:30am 8.0 2.9 3.1 71 2.1 SW 19 22 10 12 1016.9 - 0.0
31/06:15am 8.0 3.3 3.1 71 2.1 SW 17 20 9 11 1016.8 - 0.0
31/06:00am 8.2 4.3 3.2 71 2.1 SW 13 17 7 9 1016.7 - 0.0
31/05:45am 8.3 4.3 3.1 70 2.2 SSW 13 15 7 8 1016.7 - 0.0
31/05:30am 8.6 4.7 3.2 69 2.3 SSW 13 17 7 9 1016.6 - 0.0
31/05:15am 8.7 4.8 3.5 70 2.3 SSW 13 19 7 10 1016.5 - 0.0
31/05:00am 8.4 4.2 3.7 72 2.0 S 15 19 8 10 1016.5 - 0.0
31/04:45am 8.2 3.6 3.7 73 2.0 S 17 22 9 12 1016.5 - 0.0
31/04:30am 8.1 3.1 3.7 74 1.9 S 19 24 10 13 1016.5 - 0.0
31/04:15am 8.3 4.5 3.7 73 2.0 S 13 20 7 11 1016.6 - 0.0
31/04:00am 8.8 5.0 4.0 72 2.1 S 13 19 7 10 1016.7 - 0.0
31/03:45am 8.9 5.2 4.3 73 2.0 SSW 13 19 7 10 1016.7 - 0.0
31/03:30am 8.5 4.7 3.7 72 2.1 SSW 13 17 7 9 1016.8 - 0.0
31/03:15am 8.7 4.8 3.6 70 2.2 S 13 19 7 10 1016.8 - 0.0
31/03:00am 9.1 4.9 3.6 68 2.4 S 15 19 8 10 1017.0 - 0.0
31/02:45am 9.3 5.0 3.4 66 2.6 S 15 19 8 10 1017.3 - 0.0
31/02:30am 9.8 5.6 3.7 66 2.7 S 15 22 8 12 1017.5 - 0.0
31/02:15am 10.0 5.0 3.8 65 2.7 S 19 28 10 15 1017.6 - 0.0
31/02:00am 10.1 5.2 4.0 66 2.7 S 19 30 10 16 1017.8 - 0.0
31/01:45am 10.4 5.6 4.4 66 2.7 S 19 28 10 15 1018.0 - 0.0
31/01:30am 10.7 5.7 4.8 67 2.7 S 20 30 11 16 1018.3 - 0.0
31/01:15am 10.9 6.5 4.9 66 2.7 S 17 24 9 13 1018.4 - 0.0
31/01:00am 11.3 7.0 5.2 66 2.8 SSW 17 24 9 13 1018.5 - 0.0
31/12:45am 11.5 7.6 5.4 66 2.8 SSW 15 22 8 12 1018.5 - 0.0
31/12:30am 11.4 7.9 5.4 66 2.8 S 13 24 7 13 1018.6 - 0.0
31/12:15am 11.7 8.5 5.2 64 3.0 SSW 11 17 6 9 1018.6 - 0.0
31/12:00am 11.9 8.4 5.5 65 3.0 S 13 20 7 11 1018.6 - 0.0
 
Date/Time
EST
Tmp

°C
App
Tmp
°C
Dew
Point
°C
Rel
Hum
%
Delta-T

°C
Wind Press
QNH
hPa
Press
MSL
hPa
Rain
since
9 am
mm
Dir
 
Spd
km/h
Gust
km/h
Spd
kts
Gust
kts
30/11:45pm 11.9 8.8 5.5 65 3.0 SSW 11 20 6 11 1018.6 - 0.0
30/11:30pm 12.0 8.5 5.5 64 3.0 SSW 13 20 7 11 1018.6 - 0.0
30/11:15pm 11.9 8.5 5.7 66 2.9 S 13 19 7 10 1018.6 - 0.0
30/11:00pm 11.8 8.0 5.8 66 2.8 S 15 20 8 11 1018.6 - 0.0
30/10:45pm 11.8 8.0 5.8 66 2.8 S 15 20 8 11 1018.8 - 0.0
30/10:30pm 11.7 8.3 6.0 68 2.7 S 13 20 7 11 1018.9 - 0.0
30/10:15pm 11.4 7.7 6.1 70 2.5 S 15 22 8 12 1019.0 - 0.0
30/10:00pm 11.0 7.2 6.0 71 2.3 S 15 22 8 12 1018.9 - 0.0
30/09:45pm 10.7 6.9 5.8 72 2.3 S 15 19 8 10 1018.9 - 0.0
30/09:30pm 10.9 7.5 5.9 71 2.3 S 13 22 7 12 1018.9 - 0.0
30/09:15pm 10.9 7.1 6.0 72 2.3 S 15 24 8 13 1018.9 - 0.0
30/09:00pm 10.9 7.1 6.0 72 2.3 S 15 28 8 15 1018.9 - 0.0
30/08:45pm 11.0 7.6 5.9 71 2.4 S 13 22 7 12 1018.9 - 0.0
30/08:30pm 11.2 7.8 6.0 70 2.4 S 13 24 7 13 1018.8 - 0.0
30/08:15pm 11.3 7.5 6.0 70 2.5 S 15 24 8 13 1018.7 - 0.0
30/08:00pm 11.6 7.9 6.1 69 2.6 S 15 20 8 11 1018.7 - 0.0
30/07:45pm 11.8 8.1 6.2 68 2.7 S 15 20 8 11 1018.6 - 0.0
30/07:30pm 11.7 7.2 6.0 68 2.7 S 19 24 10 13 1018.5 - 0.0
30/07:15pm 11.9 7.8 6.0 67 2.8 S 17 20 9 11 1018.5 - 0.0
30/07:00pm 11.9 8.1 5.9 66 2.8 S 15 20 8 11 1018.4 - 0.0
30/06:45pm 11.9 8.1 5.7 66 2.9 SSE 15 20 8 11 1018.2 - 0.0
30/06:30pm 12.1 8.3 5.6 64 3.0 SSE 15 19 8 10 1018.1 - 0.0
30/06:15pm 12.4 8.6 5.6 63 3.2 SSE 15 20 8 11 1018.1 - 0.0
30/06:00pm 12.5 8.7 5.7 63 3.2 SSE 15 20 8 11 1018.0 - 0.0
30/05:45pm 12.7 8.5 5.6 62 3.3 SSE 17 22 9 12 1017.9 - 0.0
30/05:30pm 12.9 8.7 5.5 60 3.5 SSE 17 22 9 12 1017.7 - 0.0
30/05:15pm 13.2 8.9 5.4 59 3.7 SSE 17 22 9 12 1017.7 - 0.0
30/05:00pm 13.5 8.6 5.3 57 3.9 SSE 20 32 11 17 1017.7 - 0.0
30/04:45pm 13.9 9.2 5.2 55 4.1 S 19 28 10 15 1017.6 - 0.0
30/04:30pm 14.3 9.5 5.5 55 4.2 SSE 20 30 11 16 1017.6 - 0.0
30/04:15pm 14.5 10.4 6.0 56 4.1 SSE 17 26 9 14 1017.6 - 0.0
30/04:00pm 14.7 10.6 6.2 56 4.1 SSE 17 28 9 15 1017.5 - 0.0
30/03:45pm 14.8 9.7 5.8 55 4.3 SSE 22 32 12 17 1017.5 - 0.0
30/03:30pm 15.3 10.5 5.8 53 4.6 SSE 20 30 11 16 1017.5 - 0.0
30/03:15pm 15.3 10.8 5.9 53 4.5 SSE 19 28 10 15 1017.6 - 0.0
30/03:00pm 15.3 10.7 5.5 52 4.7 SSE 19 26 10 14 1017.7 - 0.0
30/02:45pm 15.8 12.0 5.7 51 4.9 SSE 15 24 8 13 1017.6 - 0.0
30/02:30pm 16.1 11.9 5.9 50 5.0 S 17 26 9 14 1017.6 - 0.0
30/02:15pm 15.7 12.3 5.7 51 4.8 SSE 13 28 7 15 1017.6 - 0.0
30/02:00pm 15.8 12.0 5.6 50 4.9 SSE 15 26 8 14 1017.7 - 0.0
30/01:45pm 15.7 11.7 5.1 49 5.1 SSE 15 22 8 12 1017.8 - 0.0
30/01:30pm 15.6 11.3 5.1 49 5.0 SE 17 24 9 13 1017.8 - 0.0
30/01:15pm 15.9 11.6 5.1 48 5.2 SSE 17 26 9 14 1018.0 - 0.0
30/01:00pm 15.5 11.0 4.4 47 5.2 SSE 17 28 9 15 1018.2 - 0.0
30/12:45pm 15.2 10.7 4.4 48 5.1 SE 17 28 9 15 1018.4 - 0.0
30/12:30pm 15.8 11.8 4.7 47 5.3 SE 15 22 8 12 1018.6 - 0.0
30/12:15pm 15.1 10.5 3.8 46 5.2 SE 17 24 9 13 1018.8 - 0.0
30/12:00pm 15.3 10.3 3.6 45 5.4 SE 19 26 10 14 1019.0 - 0.0
30/11:45am 15.9 11.8 4.4 46 5.4 SE 15 26 8 14 1019.3 - 0.0
30/11:30am 15.4 12.0 4.2 47 5.2 SE 11 19 6 10 1019.5 - 0.0
30/11:15am 15.0 11.1 3.6 46 5.2 SE 13 19 7 10 1019.7 - 0.0
30/11:00am 15.2 11.8 4.1 47 5.2 S 11 20 6 11 1019.8 - 0.0
30/10:45am 15.2 11.1 4.2 48 5.1 S 15 22 8 12 1019.9 - 0.0
30/10:30am 15.1 11.0 4.1 47 5.1 S 15 24 8 13 1019.9 - 0.0
30/10:15am 14.6 10.8 4.1 49 4.9 SSW 13 19 7 10 1020.0 - 0.0
30/10:00am 14.5 10.7 4.1 49 4.8 S 13 22 7 12 1020.1 - 0.0
30/09:45am 14.2 10.1 4.3 51 4.6 S 15 28 8 15 1020.0 - 0.0
30/09:30am 13.5 10.6 4.5 54 4.2 SW 9 15 5 8 1020.0 - 0.0
30/09:15am 12.6 9.2 4.1 56 3.9 SW 11 19 6 10 1020.1 - 0.0
30/09:00am 12.0 8.6 3.8 57 3.7 SW 11 17 6 9 1020.1 - 0.0
30/08:45am 11.3 7.8 3.5 58 3.5 SW 11 17 6 9 1020.1 - 0.0
30/08:30am 10.5 6.2 3.3 61 3.2 SW 15 19 8 10 1020.1 - 0.0
30/08:15am 9.9 5.6 3.0 62 3.0 SW 15 20 8 11 1020.1 - 0.0
30/08:00am 9.3 4.9 2.8 64 2.8 SW 15 19 8 10 1020.0 - 0.0
30/07:45am 8.6 4.2 2.5 65 2.6 SW 15 22 8 12 1019.9 - 0.0
30/07:30am 8.0 3.1 2.2 67 2.4 SW 17 22 9 12 1019.8 - 0.0
30/07:15am 7.5 2.6 1.8 67 2.3 SW 17 19 9 10 1019.7 - 0.0
30/07:00am 7.1 2.1 1.6 68 2.2 SSW 17 19 9 10 1019.6 - 0.0
30/06:45am 6.9 2.3 1.4 68 2.2 SSW 15 19 8 10 1019.6 - 0.0
30/06:30am 7.0 2.4 1.3 67 2.3 SSW 15 19 8 10 1019.4 - 0.0
30/06:15am 7.3 2.7 1.4 66 2.4 SSW 15 19 8 10 1019.4 - 0.0
30/06:00am 7.5 2.9 1.5 66 2.5 SSW 15 20 8 11 1019.3 - 0.0
30/05:45am 7.6 2.6 1.6 66 2.5 SSW 17 24 9 13 1019.2 - 0.0
30/05:30am 7.4 2.8 1.5 66 2.4 SSW 15 24 8 13 1019.1 - 0.0
30/05:15am 7.4 2.8 1.5 66 2.4 SSW 15 24 8 13 1019.0 - 0.0
30/05:00am 7.4 3.5 1.4 66 2.4 SSW 11 19 6 10 1019.0 - 0.0
30/04:45am 7.6 3.0 1.4 65 2.5 SSW 15 22 8 12 1019.0 - 0.0
30/04:30am 7.6 3.0 1.6 66 2.5 SSW 15 22 8 12 1018.9 - 0.0
30/04:15am 7.4 3.2 1.5 66 2.4 SSW 13 22 7 12 1018.9 - 0.0
30/04:00am 7.3 3.4 1.4 66 2.4 SSW 11 17 6 9 1019.0 - 0.0
30/03:45am 7.3 2.7 1.4 66 2.4 SSW 15 24 8 13 1019.0 - 0.0
30/03:30am 7.2 3.3 1.2 65 2.4 SSW 11 19 6 10 1019.1 - 0.0
30/03:15am 7.3 3.0 1.2 65 2.5 SSW 13 22 7 12 1019.2 - 0.0
30/03:00am 7.4 2.0 1.1 64 2.5 SSW 19 28 10 15 1019.3 - 0.0
30/02:45am 7.4 2.7 1.0 64 2.6 SSW 15 22 8 12 1019.5 - 0.0
30/02:30am 7.6 2.5 1.0 63 2.7 SSW 17 22 9 12 1019.6 - 0.0
30/02:15am 7.7 2.6 0.9 62 2.7 SW 17 22 9 12 1019.7 - 0.0
30/02:00am 7.8 2.7 0.8 61 2.8 SW 17 22 9 12 1019.9 - 0.0
30/01:45am 8.1 3.0 0.7 59 3.0 SW 17 22 9 12 1020.1 - 0.0
30/01:30am 8.5 3.0 0.7 58 3.2 SW 19 26 10 14 1020.2 - 0.0
30/01:15am 8.8 2.4 0.7 57 3.3 SW 24 33 13 18 1020.4 - 0.0
30/01:00am 8.9 2.5 0.8 57 3.3 SW 24 33 13 18 1020.5 - 0.0
30/12:45am 9.0 3.0 0.9 57 3.3 SW 22 32 12 17 1020.6 - 0.0
30/12:30am 9.1 2.7 1.0 57 3.3 SW 24 32 13 17 1020.5 - 0.0
30/12:15am 9.0 2.6 0.9 57 3.3 SW 24 32 13 17 1020.6 - 0.0
30/12:00am 9.1 2.7 1.2 57 3.3 SW 24 30 13 16 1020.7 - 0.0
 
Date/Time
EST
Tmp

°C
App
Tmp
°C
Dew
Point
°C
Rel
Hum
%
Delta-T

°C
Wind Press
QNH
hPa
Press
MSL
hPa
Rain
since
9 am
mm
Dir
 
Spd
km/h
Gust
km/h
Spd
kts
Gust
kts
29/11:45pm 9.2 3.2 1.2 57 3.3 SW 22 28 12 15 1020.7 - 0.0
29/11:30pm 9.4 3.4 1.2 56 3.4 SW 22 28 12 15 1020.9 - 0.0
29/11:15pm 9.5 3.1 1.2 56 3.4 SW 24 28 13 15 1020.9 - 0.0
29/11:00pm 9.6 3.6 1.3 56 3.5 SW 22 26 12 14 1021.0 - 0.0
29/10:45pm 9.6 4.0 1.3 56 3.5 SSW 20 26 11 14 1021.1 - 0.0
29/10:30pm 9.7 4.7 1.2 55 3.5 SSW 17 24 9 13 1021.1 - 0.0
29/10:15pm 9.8 4.4 1.1 54 3.6 SSW 19 24 10 13 1021.0 - 0.0
29/10:00pm 10.0 4.6 1.0 53 3.7 SW 19 22 10 12 1021.1 - 0.0
29/09:45pm 10.2 4.8 1.0 53 3.8 SW 19 22 10 12 1021.1 - 0.0
29/09:30pm 10.3 4.9 1.0 52 3.9 SW 19 22 10 12 1021.1 - 0.0
29/09:15pm 10.5 5.4 0.9 51 4.0 SW 17 20 9 11 1021.1 - 0.0
29/09:00pm 10.8 6.1 0.8 50 4.2 SW 15 19 8 10 1021.0 - 0.0
29/08:45pm 11.2 6.1 0.7 48 4.4 SW 17 22 9 12 1020.8 - 0.0
29/08:30pm 11.3 6.2 0.7 48 4.4 SW 17 22 9 12 1020.6 - 0.0
29/08:15pm 11.4 6.3 0.8 48 4.4 SSW 17 22 9 12 1020.4 - 0.0
29/08:00pm 11.6 6.1 0.8 47 4.5 SSW 19 22 10 12 1020.2 - 0.0
29/07:45pm 11.8 6.2 1.0 47 4.6 SSW 20 24 11 13 1020.1 - 0.0
29/07:30pm 11.8 6.4 1.2 48 4.5 SSW 19 24 10 13 1019.9 - 0.0
29/07:15pm 12.0 6.6 1.2 47 4.6 SSW 19 22 10 12 1019.7 - 0.0
29/07:00pm 12.6 7.6 1.1 45 4.9 SSW 17 22 9 12 1019.5 - 0.0
29/06:45pm 13.2 8.2 1.2 44 5.2 SW 17 20 9 11 1019.3 - 0.0
29/06:30pm 13.4 8.4 1.4 44 5.2 SW 17 19 9 10 1019.1 - 0.0
29/06:15pm 13.5 8.6 1.8 45 5.1 SW 17 19 9 10 1018.9 - 0.0
29/06:00pm 13.6 9.1 2.1 45 5.1 SW 15 17 8 9 1018.8 - 0.0
29/05:45pm 14.2 9.3 1.9 43 5.4 SW 17 22 9 12 1018.7 - 0.0
29/05:30pm 14.8 9.5 1.8 41 5.7 SW 19 22 10 12 1018.4 - 0.0
29/05:15pm 15.5 10.6 1.7 39 6.1 WSW 17 24 9 13 1018.1 - 0.0
29/05:00pm 16.1 10.8 1.6 37 6.4 WSW 19 26 10 14 1018.0 - 0.0
29/04:45pm 16.5 10.9 1.4 36 6.7 WSW 20 30 11 16 1017.9 - 0.0
29/04:30pm 16.9 11.6 1.7 36 6.8 WSW 19 28 10 15 1017.9 - 0.0
29/04:15pm 17.2 12.3 2.1 36 6.8 WSW 17 22 9 12 1018.0 - 0.0
29/04:00pm 17.4 12.5 2.1 36 6.9 SW 17 26 9 14 1018.0 - 0.0
29/03:45pm 17.5 12.6 2.1 35 7.0 WSW 17 28 9 15 1017.9 - 0.0
29/03:30pm 17.7 12.5 2.3 35 7.0 WSW 19 28 10 15 1017.9 - 0.0
29/03:15pm 17.8 13.4 2.8 36 6.9 WSW 15 26 8 14 1017.9 - 0.0
29/03:00pm 17.8 13.4 2.7 36 7.0 SW 15 24 8 13 1018.0 - 0.0
29/02:45pm 17.8 13.4 2.5 36 7.0 W 15 22 8 12 1018.1 - 0.0
29/02:30pm 17.8 13.8 2.7 36 7.0 WSW 13 22 7 12 1018.2 - 0.0
29/02:15pm 17.4 12.7 3.0 38 6.7 W 17 26 9 14 1018.4 - 0.0
29/02:00pm 17.2 12.2 3.4 39 6.4 W 19 33 10 18 1018.6 - 0.0
29/01:45pm 17.4 13.5 3.6 40 6.5 W 13 22 7 12 1018.7 - 0.0
29/01:30pm 17.1 12.5 3.5 40 6.3 W 17 24 9 13 1018.9 - 0.0
29/01:15pm 16.7 12.9 3.9 42 6.0 W 13 24 7 13 1019.2 - 0.0
29/01:00pm 16.5 11.5 3.6 42 6.0 W 19 26 10 14 1019.5 - 0.0
29/12:45pm 16.5 13.6 4.4 44 5.7 WSW 9 19 5 10 1019.8 - 0.0
29/12:30pm 16.2 12.4 3.8 43 5.8 WSW 13 22 7 12 1020.2 - 0.0
29/12:15pm 16.2 12.0 3.7 43 5.8 WSW 15 22 8 12 1020.6 - 0.0
29/12:00pm 15.8 12.1 4.6 47 5.3 W 13 24 7 13 1020.8 - 0.0
29/11:45am 15.4 12.1 4.5 48 5.1 W 11 19 6 10 1021.1 - 0.0
29/11:30am 15.4 11.3 4.6 48 5.1 W 15 24 8 13 1021.3 - 0.0
29/11:15am 15.1 11.4 4.7 50 4.9 WSW 13 22 7 12 1021.5 - 0.0
29/11:00am 14.8 11.2 4.9 51 4.7 W 13 22 7 12 1021.6 - 0.0
29/10:45am 14.5 10.8 4.7 52 4.6 WSW 13 22 7 12 1021.7 - 0.0
29/10:30am 14.2 10.7 5.3 55 4.2 W 13 20 7 11 1021.8 - 0.0
29/10:15am 13.9 9.9 4.9 54 4.2 W 15 24 8 13 1021.9 - 0.0
29/10:00am 13.9 10.4 5.4 56 4.0 W 13 24 7 13 1021.9 - 0.0
29/09:45am 13.4 9.9 5.6 59 3.7 W 13 19 7 10 1022.0 - 0.0
29/09:30am 12.9 9.4 5.6 61 3.4 W 13 19 7 10 1022.2 - 0.0
29/09:15am 12.6 10.1 6.4 66 3.0 WNW 9 19 5 10 1022.4 - 0.0
29/09:00am 12.3 9.4 6.5 67 2.8 WNW 11 15 6 8 1022.5 - 0.0
29/08:45am 11.9 9.0 6.5 69 2.6 W 11 15 6 8 1022.6 - 0.0
29/08:30am 11.6 9.1 6.7 72 2.3 W 9 13 5 7 1022.7 - 0.0
29/08:15am 11.4 9.5 7.7 78 1.8 W 7 11 4 6 1022.7 - 0.0
29/08:00am 10.3 8.0 7.4 82 1.4 WSW 9 13 5 7 1022.6 - 0.0
29/07:45am 8.8 6.2 6.3 84 1.2 WSW 9 13 5 7 1022.6 - 0.0
29/07:30am 6.9 3.6 4.3 83 1.1 WSW 11 13 6 7 1022.6 - 0.0
29/07:15am 6.4 3.3 3.6 82 1.2 WSW 9 11 5 6 1022.6 - 0.0
29/07:00am 6.1 2.5 3.2 82 1.2 WSW 11 13 6 7 1022.4 - 0.0
29/06:45am 6.0 2.0 3.0 81 1.3 WSW 13 13 7 7 1022.3 - 0.0
29/06:30am 6.4 3.2 3.2 80 1.3 W 9 13 5 7 1022.3 - 0.0
29/06:15am 6.4 3.8 3.1 79 1.4 W 6 9 3 5 1022.2 - 0.0
29/06:00am 6.5 3.9 3.1 79 1.4 W 6 7 3 4 1022.0 - 0.0
29/05:45am 7.0 4.4 3.4 78 1.5 W 6 9 3 5 1021.9 - 0.0
29/05:30am 7.8 4.4 4.1 77 1.6 WSW 11 13 6 7 1021.8 - 0.0
29/05:15am 8.1 4.4 4.4 77 1.6 WSW 13 13 7 7 1021.8 - 0.0
29/05:00am 7.9 4.2 4.2 77 1.6 WSW 13 15 7 8 1021.8 - 0.0
29/04:45am 8.1 4.4 4.3 77 1.7 SW 13 17 7 9 1021.8 - 0.0
29/04:30am 8.2 4.1 4.4 77 1.7 SW 15 17 8 9 1021.8 - 0.0
29/04:15am 8.4 4.3 4.5 76 1.7 SW 15 17 8 9 1021.8 - 0.0
29/04:00am 8.3 4.2 4.3 76 1.8 SW 15 17 8 9 1021.8 - 0.0
29/03:45am 8.8 5.1 4.7 75 1.8 SW 13 15 7 8 1021.8 - 0.0
29/03:30am 8.9 4.9 4.7 75 1.9 WSW 15 17 8 9 1021.9 - 0.0
29/03:15am 9.2 5.2 4.8 74 2.0 WSW 15 17 8 9 1022.0 - 0.0
29/03:00am 9.4 5.1 5.2 75 1.9 WSW 17 17 9 9 1022.1 - 0.0
29/02:45am 9.3 5.0 5.2 75 1.9 WSW 17 19 9 10 1022.2 - 0.0
29/02:30am 8.9 4.9 5.0 76 1.8 W 15 17 8 9 1022.4 - 0.0
29/02:15am 8.7 5.0 4.3 74 1.9 WSW 13 17 7 9 1022.5 - 0.0
29/02:00am 10.0 6.1 5.2 72 2.2 WSW 15 17 8 9 1022.6 - 0.0
29/01:45am 10.4 7.1 6.2 75 2.0 W 13 17 7 9 1022.8 - 0.0
29/01:30am 9.4 5.6 5.8 78 1.7 WSW 15 17 8 9 1022.8 - 0.0
29/01:15am 8.2 4.5 4.5 77 1.6 WSW 13 17 7 9 1022.8 - 0.0
29/01:00am 8.7 5.1 4.8 76 1.7 WSW 13 15 7 8 1022.9 - 0.0
29/12:45am 9.1 5.5 5.0 75 1.8 WSW 13 17 7 9 1022.9 - 0.0
29/12:30am 9.6 6.4 5.1 73 2.0 WSW 11 13 6 7 1022.9 - 0.0
29/12:15am 10.1 6.7 5.7 74 2.0 WSW 13 15 7 8 1022.9 - 0.0
29/12:00am 10.0 6.6 5.7 74 2.0 WSW 13 15 7 8 1022.9 - 0.0
 
Date/Time
EST
Tmp

°C
App
Tmp
°C
Dew
Point
°C
Rel
Hum
%
Delta-T

°C
Wind Press
QNH
hPa
Press
MSL
hPa
Rain
since
9 am
mm
Dir
 
Spd
km/h
Gust
km/h
Spd
kts
Gust
kts
28/11:45pm 10.0 6.6 5.8 75 1.9 SW 13 15 7 8 1023.0 - 0.0
28/11:30pm 10.3 7.0 6.3 76 1.9 SW 13 15 7 8 1023.0 - 0.0
28/11:15pm 10.5 7.3 7.0 79 1.7 SSW 13 17 7 9 1023.1 - 0.0

Latest Capital City Observations: Canberra | Sydney | Melbourne | Brisbane | Adelaide | Perth | Hobart | Darwin

Other Formats:

Comma delimited format used in spreadsheet applications
http://www.bom.gov.au/fwo/IDN60901/IDN60901.95757.axf

JavaScript Object Notation format (JSON) in row-major order
http://www.bom.gov.au/fwo/IDN60901/IDN60901.95757.json